Craig, Montana
Current Conditions -  °F | °C
As of 8:53 PM on Saturday 25 Oct 2014 (Local Time) from KHLN Reporting Station
Clear Clear  
Wind Chill: 46°   Ceiling: Unl
Heat Index: 48°   Visibility: 10mi
Dew Point: 41°   Wind: 5mph
Humidity: 77%   Direction: 200°SSW
Pressure: 29.67"   Gusts: NA
Location:  46.9762°N, 111.977°W
Report Text: KHLN 260253Z 20004KT 10SM CLR 09/05 A2967 RMK AO2 SLP068 T00890050 58017
Loading
Personal Weather Stations






























Interactive Weather Map
Tropical Storm Tracking
New forecast layout! Learn more

10-Day Weather Forecast

Advertisements
Track Severe Weather on mobile